createdAt,value
2022-11-14T00:00:10.927Z,6.10
2022-11-14T00:04:19.489Z,6.10
2022-11-14T00:08:28.554Z,6.10
2022-11-14T00:12:37.285Z,6.10
2022-11-14T00:16:45.915Z,6.10
2022-11-14T00:20:55.015Z,6.10
2022-11-14T00:25:03.643Z,6.00
2022-11-14T00:29:16.397Z,5.90
2022-11-14T00:33:25.106Z,5.90
2022-11-14T00:37:33.748Z,5.90
2022-11-14T00:41:43.089Z,5.90
2022-11-14T00:45:51.642Z,5.80
2022-11-14T00:50:00.231Z,5.80
2022-11-14T00:54:09.060Z,5.80
2022-11-14T00:58:17.689Z,5.70
2022-11-14T01:02:26.197Z,5.70
2022-11-14T01:06:34.748Z,5.80
2022-11-14T01:10:45.661Z,5.80
2022-11-14T01:14:56.154Z,5.80
2022-11-14T01:19:05.386Z,5.80
2022-11-14T01:23:16.833Z,5.70
2022-11-14T01:27:26.385Z,5.70
2022-11-14T01:31:35.198Z,5.60
2022-11-14T01:35:43.938Z,5.60
2022-11-14T01:39:52.576Z,5.60
2022-11-14T01:44:01.138Z,5.50
2022-11-14T01:48:12.804Z,5.50
2022-11-14T01:52:24.416Z,5.40
2022-11-14T01:56:54.945Z,5.40
2022-11-14T02:01:04.330Z,5.40
2022-11-14T02:05:16.093Z,5.40
2022-11-14T02:09:25.690Z,5.40
2022-11-14T02:13:34.375Z,5.40
2022-11-14T02:17:44.764Z,5.40
2022-11-14T02:21:53.515Z,5.30
2022-11-14T02:26:02.617Z,5.30
2022-11-14T02:30:17.355Z,5.30
2022-11-14T02:34:26.221Z,5.30
2022-11-14T02:38:35.260Z,5.20
2022-11-14T02:42:43.746Z,5.10
2022-11-14T02:46:52.324Z,5.10
2022-11-14T02:51:00.888Z,5.10
2022-11-14T02:55:10.131Z,5.10
2022-11-14T02:59:18.710Z,5.10
2022-11-14T03:03:27.444Z,5.00
2022-11-14T03:07:36.000Z,5.00
2022-11-14T03:11:44.905Z,4.90
2022-11-14T03:15:53.532Z,4.90
2022-11-14T03:20:02.808Z,4.90
2022-11-14T03:24:11.406Z,5.00
2022-11-14T03:28:19.965Z,5.00
2022-11-14T03:32:28.584Z,4.90
2022-11-14T03:36:37.522Z,4.90
2022-11-14T03:41:05.601Z,4.90
2022-11-14T03:45:14.316Z,4.90
2022-11-14T03:49:22.844Z,4.70
2022-11-14T03:53:31.466Z,4.70
2022-11-14T03:57:40.096Z,4.60
2022-11-14T04:01:49.040Z,4.60
2022-11-14T04:05:57.628Z,4.70
2022-11-14T04:10:07.237Z,4.60
2022-11-14T04:14:15.838Z,4.70
2022-11-14T04:18:25.508Z,4.70
2022-11-14T04:22:34.324Z,4.70
2022-11-14T04:26:42.954Z,4.60
2022-11-14T04:30:51.583Z,4.60
2022-11-14T04:35:00.620Z,4.60
2022-11-14T04:39:09.272Z,4.60
2022-11-14T04:43:17.887Z,4.60
2022-11-14T04:47:26.480Z,4.50
2022-11-14T04:51:35.237Z,4.50
2022-11-14T05:00:18.355Z,4.50
2022-11-14T05:04:27.096Z,4.50
2022-11-14T05:08:36.118Z,4.50
2022-11-14T05:12:44.764Z,4.40
2022-11-14T05:16:53.395Z,4.40
2022-11-14T05:21:02.544Z,4.30
2022-11-14T05:25:30.624Z,4.20
2022-11-14T05:29:39.246Z,4.20
2022-11-14T05:33:48.166Z,4.30
2022-11-14T05:37:59.932Z,4.20
2022-11-14T05:42:07.042Z,4.20
2022-11-14T05:46:18.984Z,4.20
2022-11-14T05:50:27.509Z,4.10
2022-11-14T05:54:36.141Z,4.10
2022-11-14T05:58:44.766Z,4.10
2022-11-14T06:02:57.035Z,4.10
2022-11-14T06:07:06.901Z,4.10
2022-11-14T06:11:18.397Z,4.10
2022-11-14T06:15:27.129Z,4.10
2022-11-14T06:19:36.146Z,4.00
2022-11-14T06:24:05.303Z,4.00
2022-11-14T06:28:13.942Z,4.00
2022-11-14T06:32:22.617Z,4.00
2022-11-14T06:36:31.196Z,4.00
2022-11-14T06:40:39.771Z,4.00
2022-11-14T06:44:48.456Z,4.00
2022-11-14T06:48:56.949Z,4.00
2022-11-14T06:53:05.610Z,4.10
2022-11-14T06:57:14.751Z,3.90
2022-11-14T07:01:27.318Z,3.90
2022-11-14T07:05:35.900Z,3.90
2022-11-14T07:09:44.528Z,3.90
2022-11-14T07:13:55.616Z,3.90
2022-11-14T07:18:04.350Z,3.90
2022-11-14T07:22:13.180Z,4.10
2022-11-14T07:26:21.809Z,4.20
2022-11-14T07:30:30.454Z,4.10
2022-11-14T07:34:39.167Z,4.10
2022-11-14T07:38:47.758Z,4.10
2022-11-14T07:43:01.442Z,4.10
2022-11-14T07:47:10.173Z,4.10
2022-11-14T07:51:22.404Z,4.10
2022-11-14T07:55:32.039Z,4.10
2022-11-14T07:59:40.668Z,4.10
2022-11-14T08:03:49.207Z,4.10
2022-11-14T08:08:17.131Z,4.20
2022-11-14T08:12:25.807Z,4.20
2022-11-14T08:16:34.740Z,4.30
2022-11-14T08:21:07.024Z,4.40
2022-11-14T08:25:15.666Z,4.50
2022-11-14T08:29:25.099Z,4.60
2022-11-14T08:33:33.763Z,4.70
2022-11-14T08:37:42.627Z,4.80
2022-11-14T08:41:51.292Z,5.00
2022-11-14T08:46:02.185Z,5.20
2022-11-14T08:50:30.465Z,5.40
2022-11-14T08:54:40.455Z,5.60
2022-11-14T08:58:49.055Z,5.70
2022-11-14T09:02:58.633Z,5.90
2022-11-14T09:07:07.787Z,6.10
2022-11-14T09:11:19.074Z,6.20
2022-11-14T09:15:28.380Z,6.40
2022-11-14T09:19:37.009Z,6.50
2022-11-14T09:23:49.821Z,6.60
2022-11-14T09:27:58.868Z,6.80
2022-11-14T09:32:08.231Z,6.90
2022-11-14T09:36:18.561Z,7.00
2022-11-14T09:40:27.934Z,7.00
2022-11-14T09:44:51.002Z,7.20
2022-11-14T09:49:00.552Z,7.20
2022-11-14T09:53:18.090Z,7.30
2022-11-14T09:57:46.892Z,7.30
2022-11-14T10:02:22.357Z,7.30
2022-11-14T10:07:07.576Z,7.40
2022-11-14T10:11:46.781Z,7.40
2022-11-14T10:16:22.181Z,7.50
2022-11-14T10:21:01.689Z,7.50
2022-11-14T10:25:31.108Z,7.50
2022-11-14T10:29:42.708Z,7.60
2022-11-14T10:34:06.183Z,7.60
2022-11-14T10:38:21.468Z,7.70
2022-11-14T10:42:38.590Z,7.70
2022-11-14T10:47:08.045Z,7.70
2022-11-14T10:51:37.528Z,7.70
2022-11-14T10:56:03.771Z,7.80
2022-11-14T10:59:59.598Z,7.80
2022-11-14T11:04:34.767Z,7.80
2022-11-14T11:09:02.152Z,7.80
2022-11-14T11:13:13.927Z,7.80
2022-11-14T11:17:29.585Z,7.80
2022-11-14T11:21:38.918Z,7.80
2022-11-14T11:25:49.131Z,7.80
2022-11-14T11:30:10.576Z,7.90
2022-11-14T11:34:22.251Z,7.90
2022-11-14T11:38:33.226Z,7.90
2022-11-14T11:43:36.625Z,8.00
2022-11-14T11:47:23.467Z,8.10
2022-11-14T11:51:34.001Z,8.20
2022-11-14T11:55:52.296Z,8.40
2022-11-14T12:00:06.634Z,8.50
2022-11-14T12:04:15.305Z,8.60
2022-11-14T12:08:36.101Z,8.70
2022-11-14T12:12:47.798Z,8.90
2022-11-14T12:17:31.499Z,8.90
2022-11-14T12:22:03.913Z,9.00
2022-11-14T12:26:15.554Z,9.00
2022-11-14T12:30:26.081Z,9.00
2022-11-14T12:34:45.481Z,9.10
2022-11-14T12:38:55.473Z,9.10
2022-11-14T12:43:05.087Z,9.20
2022-11-14T12:47:19.640Z,9.20
2022-11-14T12:51:31.438Z,9.20
2022-11-14T12:55:46.148Z,9.10
2022-11-14T13:00:14.704Z,9.10
2022-11-14T13:04:38.426Z,9.10
2022-11-14T13:09:04.684Z,9.20
2022-11-14T13:13:33.806Z,9.20
2022-11-14T13:18:01.669Z,9.10
2022-11-14T13:22:16.121Z,9.10
2022-11-14T13:26:33.762Z,9.00
2022-11-14T13:31:07.335Z,9.10
2022-11-14T13:35:33.516Z,9.10
2022-11-14T13:40:17.062Z,9.10
2022-11-14T13:44:58.459Z,9.00
2022-11-14T13:49:46.205Z,9.00
2022-11-14T13:53:54.745Z,9.00
2022-11-14T13:58:40.019Z,9.00
2022-11-14T14:03:19.095Z,9.00
2022-11-14T14:07:30.950Z,9.00
2022-11-14T14:11:59.358Z,9.00
2022-11-14T14:16:20.586Z,9.00
2022-11-14T14:20:38.225Z,9.00
2022-11-14T14:25:17.308Z,9.00
2022-11-14T14:29:47.397Z,9.00
2022-11-14T14:33:55.924Z,9.00
2022-11-14T14:38:06.621Z,9.00
2022-11-14T14:42:38.987Z,9.00
2022-11-14T14:46:48.298Z,9.00
2022-11-14T14:50:59.244Z,8.90
2022-11-14T14:55:10.783Z,8.90
2022-11-14T14:59:22.102Z,8.90
2022-11-14T15:03:39.024Z,9.00
2022-11-14T15:07:49.987Z,8.90
2022-11-14T15:12:01.406Z,8.90
2022-11-14T15:16:11.508Z,9.00
2022-11-14T15:20:29.924Z,8.90
2022-11-14T15:25:14.708Z,8.90
2022-11-14T15:29:25.665Z,9.00
2022-11-14T15:33:36.264Z,8.90
2022-11-14T15:38:36.779Z,8.90
2022-11-14T15:42:21.778Z,8.90
2022-11-14T15:46:36.860Z,8.90
2022-11-14T15:50:46.972Z,8.90
2022-11-14T15:54:55.590Z,8.90
2022-11-14T15:59:04.179Z,8.90
2022-11-14T16:03:15.470Z,8.90
2022-11-14T16:07:24.044Z,8.90
2022-11-14T16:11:33.778Z,8.90
2022-11-14T16:15:42.328Z,8.90
2022-11-14T16:19:50.897Z,8.90
2022-11-14T16:23:59.467Z,8.90
2022-11-14T16:28:08.042Z,8.90
2022-11-14T16:32:16.621Z,8.90
2022-11-14T16:36:25.209Z,8.90
2022-11-14T16:40:33.766Z,8.90
2022-11-14T16:44:47.800Z,8.90
2022-11-14T16:48:52.945Z,8.90
2022-11-14T16:53:01.574Z,8.90
2022-11-14T17:01:25.877Z,8.90
2022-11-14T17:05:34.826Z,8.90
2022-11-14T17:09:43.412Z,8.90
2022-11-14T17:13:51.981Z,8.90
2022-11-14T17:18:00.530Z,8.90
2022-11-14T17:22:09.237Z,8.90
2022-11-14T17:26:17.762Z,8.90
2022-11-14T17:30:26.392Z,8.90
2022-11-14T17:34:34.938Z,8.90
2022-11-14T17:38:43.549Z,8.90
2022-11-14T17:42:53.508Z,8.90
2022-11-14T17:47:02.038Z,8.90
2022-11-14T17:51:13.631Z,8.90
2022-11-14T17:55:22.464Z,8.90
2022-11-14T17:59:30.957Z,8.90
2022-11-14T18:03:39.620Z,8.90
2022-11-14T18:07:48.144Z,8.90
2022-11-14T18:11:56.776Z,8.80
2022-11-14T18:16:08.379Z,8.80
2022-11-14T18:20:17.367Z,8.80
2022-11-14T18:24:26.063Z,8.80
2022-11-14T18:28:34.670Z,8.80
2022-11-14T18:33:02.549Z,8.80
2022-11-14T18:37:11.179Z,8.80
2022-11-14T18:41:22.202Z,8.80
2022-11-14T18:45:30.796Z,8.80
2022-11-14T18:49:39.421Z,8.80
2022-11-14T18:53:51.403Z,8.70
2022-11-14T18:58:00.054Z,8.60
2022-11-14T19:02:10.224Z,8.50
2022-11-14T19:06:31.110Z,8.40
2022-11-14T19:10:39.765Z,8.30
2022-11-14T19:14:50.544Z,8.20
2022-11-14T19:18:59.972Z,8.20
2022-11-14T19:23:08.653Z,8.10
2022-11-14T19:27:17.353Z,8.00
2022-11-14T19:31:25.851Z,7.90
2022-11-14T19:35:34.432Z,7.90
2022-11-14T19:39:43.032Z,7.80
2022-11-14T19:43:52.281Z,7.80
2022-11-14T19:48:00.772Z,7.80
2022-11-14T19:52:10.103Z,7.70
2022-11-14T19:56:20.173Z,7.70
2022-11-14T20:00:29.517Z,7.60
2022-11-14T20:04:38.285Z,7.50
2022-11-14T20:08:46.781Z,7.50
2022-11-14T20:12:55.353Z,7.40
2022-11-14T20:17:04.376Z,7.40
2022-11-14T20:21:17.720Z,7.30
2022-11-14T20:25:26.344Z,7.30
2022-11-14T20:29:34.960Z,7.20
2022-11-14T20:33:45.865Z,7.30
2022-11-14T20:37:54.416Z,7.30
2022-11-14T20:42:03.015Z,7.40
2022-11-14T20:46:16.559Z,7.40
2022-11-14T20:50:25.183Z,7.50
2022-11-14T20:54:34.527Z,7.60
2022-11-14T20:58:44.433Z,7.70
2022-11-14T21:02:53.683Z,7.70
2022-11-14T21:07:02.360Z,7.70
2022-11-14T21:11:15.450Z,7.70
2022-11-14T21:15:24.124Z,7.70
2022-11-14T21:19:32.753Z,7.70
2022-11-14T21:23:41.279Z,7.80
2022-11-14T21:27:49.916Z,7.80
2022-11-14T21:31:58.537Z,7.90
2022-11-14T21:36:37.622Z,8.00
2022-11-14T21:40:21.834Z,8.00
2022-11-14T21:44:30.462Z,8.00
2022-11-14T21:48:41.846Z,8.10
2022-11-14T21:53:11.478Z,8.10
2022-11-14T21:57:39.459Z,8.20
2022-11-14T22:02:25.775Z,8.20
2022-11-14T22:06:34.403Z,8.20
2022-11-14T22:10:43.134Z,8.30
2022-11-14T22:14:51.759Z,8.30
2022-11-14T22:19:05.035Z,8.40
2022-11-14T22:23:10.860Z,8.40
2022-11-14T22:27:19.489Z,8.40
2022-11-14T22:31:28.323Z,8.50
2022-11-14T22:35:36.951Z,8.50
2022-11-14T22:39:45.493Z,8.50
2022-11-14T22:43:54.312Z,8.40
2022-11-14T22:48:02.942Z,8.40
2022-11-14T22:52:31.025Z,8.40
2022-11-14T22:56:40.166Z,8.40
2022-11-14T23:00:48.795Z,8.40
2022-11-14T23:04:57.296Z,8.40
2022-11-14T23:09:06.434Z,8.40
2022-11-14T23:13:15.689Z,8.50
2022-11-14T23:17:26.153Z,8.50
2022-11-14T23:21:38.153Z,8.50
2022-11-14T23:25:46.715Z,8.50
2022-11-14T23:29:55.337Z,8.60
2022-11-14T23:34:03.866Z,8.60
2022-11-14T23:42:27.836Z,8.60
2022-11-14T23:46:36.508Z,8.70
2022-11-14T23:50:45.753Z,8.70
2022-11-14T23:54:54.483Z,8.70
2022-11-14T23:59:03.009Z,8.80
